createdAt,value
2018-09-29T00:02:21.427Z,2.40
2018-09-29T00:04:49.755Z,2.40
2018-09-29T00:07:18.247Z,2.00
2018-09-29T00:09:46.526Z,2.50
2018-09-29T00:12:15.798Z,2.60
2018-09-29T00:14:44.263Z,2.50
2018-09-29T00:17:12.590Z,2.30
2018-09-29T00:19:40.882Z,2.40
2018-09-29T00:22:09.183Z,2.27
2018-09-29T00:24:37.534Z,2.10
2018-09-29T00:27:05.826Z,2.20
2018-09-29T00:29:34.131Z,3.12
2018-09-29T00:32:02.490Z,2.30
2018-09-29T00:34:30.782Z,2.60
2018-09-29T00:36:59.110Z,2.33
2018-09-29T00:39:27.471Z,2.30
2018-09-29T00:41:55.791Z,1.90
2018-09-29T00:44:24.127Z,2.50
2018-09-29T00:46:52.422Z,2.50
2018-09-29T00:49:20.742Z,2.10
2018-09-29T00:51:49.050Z,2.10
2018-09-29T00:54:17.375Z,1.90
2018-09-29T00:56:45.658Z,1.80
2018-09-29T00:59:13.985Z,2.00
2018-09-29T01:01:42.268Z,1.87
2018-09-29T01:04:10.574Z,2.20
2018-09-29T01:06:38.906Z,1.83
2018-09-29T01:09:07.435Z,2.47
2018-09-29T01:11:35.743Z,2.12
2018-09-29T01:14:04.075Z,1.80
2018-09-29T01:16:32.471Z,2.05
2018-09-29T01:19:00.807Z,1.93
2018-09-29T01:21:29.155Z,1.57
2018-09-29T01:23:57.550Z,2.10
2018-09-29T01:26:25.879Z,2.00
2018-09-29T01:28:54.163Z,1.70
2018-09-29T01:31:22.486Z,2.20
2018-09-29T01:33:51.532Z,1.97
2018-09-29T01:36:19.826Z,1.87
2018-09-29T01:38:48.144Z,1.70
2018-09-29T01:41:16.494Z,1.93
2018-09-29T01:43:44.898Z,1.60
2018-09-29T01:46:13.246Z,1.70
2018-09-29T01:48:41.548Z,1.67
2018-09-29T01:51:09.844Z,2.00
2018-09-29T01:53:38.115Z,1.80
2018-09-29T01:56:06.435Z,1.70
2018-09-29T01:58:34.710Z,1.80
2018-09-29T02:01:03.055Z,1.60
2018-09-29T02:03:31.371Z,1.90
2018-09-29T02:05:59.686Z,1.67
2018-09-29T02:08:27.994Z,1.50
2018-09-29T02:10:56.295Z,1.97
2018-09-29T02:13:24.588Z,1.90
2018-09-29T02:15:52.930Z,1.70
2018-09-29T02:18:21.246Z,1.57
2018-09-29T02:20:49.558Z,1.53
2018-09-29T02:23:17.846Z,2.00
2018-09-29T02:25:46.171Z,1.50
2018-09-29T02:28:14.475Z,2.00
2018-09-29T02:30:42.774Z,1.43
2018-09-29T02:33:11.064Z,1.60
2018-09-29T02:35:39.415Z,1.90
2018-09-29T02:38:07.714Z,1.70
2018-09-29T02:40:36.016Z,1.53
2018-09-29T02:43:04.305Z,1.50
2018-09-29T02:45:32.593Z,1.63
2018-09-29T02:48:00.887Z,1.67
2018-09-29T02:50:29.306Z,1.90
2018-09-29T02:52:57.747Z,1.47
2018-09-29T02:55:26.058Z,1.40
2018-09-29T02:57:54.398Z,1.60
2018-09-29T03:00:22.742Z,2.07
2018-09-29T03:02:51.066Z,1.60
2018-09-29T03:05:19.450Z,1.50
2018-09-29T03:07:48.448Z,1.80
2018-09-29T03:10:16.951Z,1.43
2018-09-29T03:12:45.334Z,1.47
2018-09-29T03:15:14.003Z,1.50
2018-09-29T03:17:42.438Z,2.20
2018-09-29T03:20:10.884Z,1.30
2018-09-29T03:22:39.182Z,1.63
2018-09-29T03:25:07.568Z,1.42
2018-09-29T03:27:35.862Z,1.37
2018-09-29T03:30:04.271Z,1.45
2018-09-29T03:32:32.561Z,1.20
2018-09-29T03:35:00.880Z,1.37
2018-09-29T03:37:30.029Z,1.30
2018-09-29T03:39:58.319Z,0.97
2018-09-29T03:42:27.106Z,1.40
2018-09-29T03:44:55.459Z,1.40
2018-09-29T03:47:23.768Z,1.50
2018-09-29T03:49:52.063Z,1.13
2018-09-29T03:52:20.343Z,0.97
2018-09-29T03:54:48.747Z,1.47
2018-09-29T03:57:17.051Z,1.30
2018-09-29T03:59:45.344Z,1.33
2018-09-29T04:02:13.667Z,1.40
2018-09-29T04:04:42.103Z,1.30
2018-09-29T04:07:10.410Z,1.27
2018-09-29T04:09:38.730Z,1.77
2018-09-29T04:12:07.117Z,1.73
2018-09-29T04:14:35.427Z,1.77
2018-09-29T04:17:03.746Z,1.57
2018-09-29T04:19:33.102Z,1.40
2018-09-29T04:22:01.506Z,1.70
2018-09-29T04:24:29.770Z,1.63
2018-09-29T04:26:58.060Z,1.70
2018-09-29T04:29:26.431Z,1.93
2018-09-29T04:31:54.742Z,1.30
2018-09-29T04:34:23.014Z,1.70
2018-09-29T04:36:51.302Z,1.30
2018-09-29T04:39:19.594Z,1.40
2018-09-29T04:41:47.894Z,1.70
2018-09-29T04:44:16.195Z,1.75
2018-09-29T04:46:44.623Z,1.77
2018-09-29T04:49:13.033Z,1.50
2018-09-29T04:51:41.243Z,1.70
2018-09-29T04:54:09.515Z,1.40
2018-09-29T04:56:38.023Z,1.50
2018-09-29T04:59:06.282Z,1.20
2018-09-29T05:06:41.236Z,1.40
2018-09-29T05:09:09.995Z,1.37
2018-09-29T05:11:38.351Z,1.20
2018-09-29T05:14:07.171Z,1.50
2018-09-29T05:16:35.770Z,1.50
2018-09-29T05:19:04.171Z,1.13
2018-09-29T05:21:32.486Z,1.43
2018-09-29T05:24:00.802Z,1.50
2018-09-29T05:26:29.103Z,1.33
2018-09-29T05:28:57.383Z,1.20
2018-09-29T05:31:25.747Z,1.30
2018-09-29T05:33:54.118Z,1.60
2018-09-29T05:36:22.399Z,1.50
2018-09-29T05:38:50.786Z,1.32
2018-09-29T05:41:19.119Z,1.47
2018-09-29T05:43:47.462Z,2.10
2018-09-29T05:46:15.799Z,1.10
2018-09-29T05:48:44.191Z,1.60
2018-09-29T05:51:12.470Z,1.50
2018-09-29T05:53:40.838Z,1.33
2018-09-29T05:56:09.107Z,1.37
2018-09-29T05:58:38.267Z,1.67
2018-09-29T06:01:06.599Z,1.90
2018-09-29T06:03:34.897Z,1.40
2018-09-29T06:06:03.178Z,1.60
2018-09-29T06:08:31.501Z,1.60
2018-09-29T06:10:59.770Z,1.60
2018-09-29T06:13:28.190Z,1.50
2018-09-29T06:15:57.528Z,1.53
2018-09-29T06:18:25.834Z,1.62
2018-09-29T06:20:54.408Z,1.45
2018-09-29T06:23:22.718Z,1.10
2018-09-29T06:25:51.169Z,1.20
2018-09-29T06:28:19.578Z,1.60
2018-09-29T06:30:47.934Z,1.13
2018-09-29T06:33:16.322Z,1.33
2018-09-29T06:35:44.715Z,1.57
2018-09-29T06:38:13.266Z,1.37
2018-09-29T06:40:41.590Z,1.37
2018-09-29T06:43:09.946Z,1.33
2018-09-29T06:45:38.267Z,2.20
2018-09-29T06:48:06.601Z,2.70
2018-09-29T06:50:34.899Z,2.97
2018-09-29T06:53:03.211Z,2.33
2018-09-29T06:55:31.576Z,1.77
2018-09-29T06:57:59.874Z,1.90
2018-09-29T07:00:28.491Z,2.10
2018-09-29T07:02:56.987Z,2.60
2018-09-29T07:05:25.347Z,2.40
2018-09-29T07:07:53.747Z,2.22
2018-09-29T07:10:22.191Z,1.80
2018-09-29T07:12:51.522Z,1.90
2018-09-29T07:15:20.074Z,1.97
2018-09-29T07:17:48.575Z,1.57
2018-09-29T07:20:16.867Z,2.13
2018-09-29T07:22:45.294Z,1.83
2018-09-29T07:25:13.674Z,2.23
2018-09-29T07:27:42.034Z,2.70
2018-09-29T07:30:11.775Z,1.97
2018-09-29T07:32:40.088Z,1.90
2018-09-29T07:35:08.616Z,2.37
2018-09-29T07:37:37.041Z,2.10
2018-09-29T07:40:05.544Z,1.70
2018-09-29T07:42:34.186Z,1.80
2018-09-29T07:45:02.646Z,1.87
2018-09-29T07:47:31.030Z,1.92
2018-09-29T07:49:59.346Z,2.63
2018-09-29T07:52:27.747Z,1.93
2018-09-29T07:54:56.168Z,1.80
2018-09-29T07:57:24.478Z,2.27
2018-09-29T07:59:52.772Z,2.00
2018-09-29T08:02:21.214Z,2.07
2018-09-29T08:04:49.639Z,1.77
2018-09-29T08:07:18.219Z,1.20
2018-09-29T08:09:46.636Z,1.90
2018-09-29T08:12:15.033Z,1.83
2018-09-29T08:14:43.307Z,1.90
2018-09-29T08:17:11.643Z,1.43
2018-09-29T08:19:39.986Z,1.70
2018-09-29T08:22:08.442Z,2.07
2018-09-29T08:24:36.835Z,1.97
2018-09-29T08:27:05.195Z,2.00
2018-09-29T08:29:33.589Z,1.77
2018-09-29T08:32:02.011Z,1.77
2018-09-29T08:34:30.366Z,1.80
2018-09-29T08:36:58.759Z,1.80
2018-09-29T08:39:27.150Z,1.50
2018-09-29T08:41:55.435Z,1.93
2018-09-29T08:44:23.755Z,1.90
2018-09-29T08:46:52.082Z,2.03
2018-09-29T08:49:20.392Z,2.03
2018-09-29T08:51:48.698Z,1.80
2018-09-29T08:54:16.990Z,2.20
2018-09-29T08:56:45.375Z,1.90
2018-09-29T08:59:13.674Z,1.57
2018-09-29T09:01:41.957Z,1.80
2018-09-29T09:04:10.307Z,1.92
2018-09-29T09:06:38.643Z,2.17
2018-09-29T09:09:08.128Z,1.53
2018-09-29T09:11:36.628Z,1.87
2018-09-29T09:14:05.166Z,1.67
2018-09-29T09:16:33.644Z,2.40
2018-09-29T09:19:01.992Z,1.57
2018-09-29T09:21:30.303Z,1.43
2018-09-29T09:23:58.766Z,1.40
2018-09-29T09:26:27.451Z,1.70
2018-09-29T09:28:55.758Z,2.10
2018-09-29T09:31:24.047Z,1.90
2018-09-29T09:33:52.363Z,1.60
2018-09-29T09:36:20.634Z,2.20
2018-09-29T09:38:48.898Z,1.90
2018-09-29T09:41:17.193Z,1.57
2018-09-29T09:43:45.482Z,1.63
2018-09-29T09:46:13.883Z,1.42
2018-09-29T09:48:42.194Z,1.30
2018-09-29T09:51:10.510Z,1.47
2018-09-29T09:53:38.797Z,1.77
2018-09-29T09:56:07.671Z,2.03
2018-09-29T09:58:36.669Z,1.97
2018-09-29T10:01:10.478Z,1.90
2018-09-29T10:03:38.846Z,1.80
2018-09-29T10:06:07.208Z,1.67
2018-09-29T10:08:35.527Z,1.80
2018-09-29T10:11:03.879Z,2.10
2018-09-29T10:13:32.183Z,2.05
2018-09-29T10:16:00.562Z,2.00
2018-09-29T10:18:29.326Z,2.07
2018-09-29T10:20:57.734Z,1.62
2018-09-29T10:23:26.135Z,1.83
2018-09-29T10:25:54.452Z,1.80
2018-09-29T10:28:22.723Z,1.93
2018-09-29T10:30:51.018Z,1.87
2018-09-29T10:33:19.316Z,1.83
2018-09-29T10:35:47.595Z,1.40
2018-09-29T10:38:15.941Z,1.77
2018-09-29T10:40:44.257Z,1.87
2018-09-29T10:43:12.530Z,1.83
2018-09-29T10:45:40.808Z,1.90
2018-09-29T10:48:09.207Z,1.80
2018-09-29T10:50:37.527Z,1.80
2018-09-29T10:53:05.974Z,2.10
2018-09-29T10:55:34.274Z,1.90
2018-09-29T10:58:02.669Z,2.03
2018-09-29T11:00:31.460Z,1.70
2018-09-29T11:02:59.969Z,2.40
2018-09-29T11:05:28.362Z,2.13
2018-09-29T11:07:56.647Z,2.00
2018-09-29T11:10:24.933Z,2.43
2018-09-29T11:12:53.214Z,1.33
2018-09-29T11:15:21.514Z,1.40
2018-09-29T11:17:49.806Z,1.77
2018-09-29T11:20:18.186Z,1.83
2018-09-29T11:22:46.488Z,1.60
2018-09-29T11:25:14.790Z,1.60
2018-09-29T11:27:43.106Z,1.37
2018-09-29T11:30:11.395Z,1.83
2018-09-29T11:32:39.670Z,1.40
2018-09-29T11:35:07.970Z,1.40
2018-09-29T11:37:36.422Z,1.53
2018-09-29T11:40:04.871Z,1.20
2018-09-29T11:42:33.143Z,1.67
2018-09-29T11:45:01.569Z,1.00
2018-09-29T11:47:29.898Z,1.70
2018-09-29T11:49:58.184Z,1.67
2018-09-29T11:52:26.645Z,1.30
2018-09-29T11:54:54.942Z,1.30
2018-09-29T11:57:23.763Z,1.50
2018-09-29T11:59:52.050Z,1.00
2018-09-29T12:02:20.507Z,1.00
2018-09-29T12:04:48.950Z,1.20
2018-09-29T12:07:17.389Z,1.47
2018-09-29T12:09:45.662Z,1.27
2018-09-29T12:12:14.003Z,1.27
2018-09-29T12:14:42.362Z,1.50
2018-09-29T12:17:10.683Z,1.07
2018-09-29T12:19:39.023Z,1.00
2018-09-29T12:22:07.562Z,0.87
2018-09-29T12:24:35.814Z,1.00
2018-09-29T12:27:04.110Z,1.13
2018-09-29T12:29:32.433Z,1.00
2018-09-29T12:32:00.734Z,1.20
2018-09-29T12:34:29.076Z,0.90
2018-09-29T12:36:57.422Z,1.67
2018-09-29T12:39:25.735Z,1.10
2018-09-29T12:41:54.059Z,1.47
2018-09-29T12:44:22.434Z,1.77
2018-09-29T12:46:50.706Z,1.60
2018-09-29T12:49:18.978Z,1.10
2018-09-29T12:51:47.394Z,1.27
2018-09-29T12:54:15.735Z,1.40
2018-09-29T12:56:44.094Z,0.77
2018-09-29T12:59:12.367Z,1.00
2018-09-29T13:01:41.711Z,1.30
2018-09-29T13:04:10.062Z,1.33
2018-09-29T13:06:38.375Z,1.13
2018-09-29T13:09:08.028Z,0.90
2018-09-29T13:11:36.389Z,1.00
2018-09-29T13:14:04.849Z,0.77
2018-09-29T13:16:33.199Z,0.97
2018-09-29T13:19:01.551Z,1.00
2018-09-29T13:21:29.932Z,1.10
2018-09-29T13:23:58.290Z,1.20
2018-09-29T13:26:26.571Z,1.00
2018-09-29T13:28:54.915Z,0.93
2018-09-29T13:31:23.310Z,1.80
2018-09-29T13:33:51.679Z,1.20
2018-09-29T13:36:20.035Z,1.20
2018-09-29T13:38:49.739Z,1.00
2018-09-29T13:41:18.187Z,0.93
2018-09-29T13:43:46.715Z,1.00
2018-09-29T13:46:15.619Z,1.33
2018-09-29T13:48:43.918Z,0.90
2018-09-29T13:51:12.195Z,1.27
2018-09-29T13:53:40.614Z,1.40
2018-09-29T13:56:08.970Z,1.07
2018-09-29T13:58:37.307Z,1.00
2018-09-29T14:01:05.588Z,1.10
2018-09-29T14:03:33.887Z,1.13
2018-09-29T14:06:02.218Z,1.10
2018-09-29T14:08:30.543Z,1.13
2018-09-29T14:10:58.858Z,1.20
2018-09-29T14:13:27.195Z,0.93
2018-09-29T14:15:55.462Z,1.27
2018-09-29T14:18:23.749Z,1.00
2018-09-29T14:20:52.027Z,0.80
2018-09-29T14:23:20.403Z,1.10
2018-09-29T14:25:48.811Z,0.90
2018-09-29T14:28:17.146Z,0.87
2018-09-29T14:30:45.434Z,1.43
2018-09-29T14:33:13.750Z,0.70
2018-09-29T14:35:42.106Z,1.20
2018-09-29T14:38:10.626Z,1.00
2018-09-29T14:40:38.890Z,1.53
2018-09-29T14:43:07.354Z,1.20
2018-09-29T14:45:35.758Z,1.23
2018-09-29T14:48:04.223Z,1.10
2018-09-29T14:50:32.626Z,1.33
2018-09-29T14:53:01.128Z,1.20
2018-09-29T14:55:29.537Z,0.90
2018-09-29T14:57:58.007Z,1.10
2018-09-29T15:00:26.286Z,1.10
2018-09-29T15:02:54.630Z,1.10
2018-09-29T15:05:22.956Z,0.90
2018-09-29T15:07:52.678Z,1.43
2018-09-29T15:10:21.116Z,0.90
2018-09-29T15:12:49.463Z,1.20
2018-09-29T15:15:17.778Z,1.10
2018-09-29T15:17:46.319Z,1.10
2018-09-29T15:20:14.659Z,1.20
2018-09-29T15:22:42.940Z,0.90
2018-09-29T15:25:11.310Z,1.30
2018-09-29T15:27:39.706Z,1.17
2018-09-29T15:30:08.012Z,1.10
2018-09-29T15:32:36.324Z,1.10
2018-09-29T15:35:04.951Z,1.45
2018-09-29T15:37:33.237Z,1.10
2018-09-29T15:40:01.727Z,1.07
2018-09-29T15:42:30.093Z,1.00
2018-09-29T15:44:58.381Z,1.07
2018-09-29T15:47:26.675Z,1.17
2018-09-29T15:49:55.378Z,1.37
2018-09-29T15:52:23.674Z,0.93
2018-09-29T15:54:52.098Z,1.30
2018-09-29T15:57:20.432Z,0.90
2018-09-29T15:59:48.735Z,1.10
2018-09-29T16:02:17.089Z,1.40
2018-09-29T16:04:45.371Z,1.10
2018-09-29T16:07:13.658Z,1.57
2018-09-29T16:09:42.004Z,1.00
2018-09-29T16:12:10.410Z,1.30
2018-09-29T16:14:38.791Z,1.40
2018-09-29T16:17:07.120Z,1.17
2018-09-29T16:19:35.435Z,1.23
2018-09-29T16:22:03.702Z,1.47
2018-09-29T16:24:32.171Z,2.33
2018-09-29T16:27:00.480Z,1.60
2018-09-29T16:29:28.934Z,1.73
2018-09-29T16:31:57.239Z,1.27
2018-09-29T16:34:25.677Z,1.80
2018-09-29T16:36:53.976Z,1.83
2018-09-29T16:39:22.274Z,2.03
2018-09-29T16:41:50.550Z,1.43
2018-09-29T16:44:18.923Z,1.33
2018-09-29T16:46:47.218Z,1.43
2018-09-29T16:49:15.543Z,1.50
2018-09-29T16:51:43.821Z,1.50
2018-09-29T16:54:12.215Z,1.43
2018-09-29T16:56:40.486Z,1.10
2018-09-29T16:59:08.811Z,1.20
2018-09-29T17:01:37.129Z,1.15
2018-09-29T17:04:05.485Z,1.20
2018-09-29T17:06:33.731Z,1.20
2018-09-29T17:09:02.019Z,1.27
2018-09-29T17:11:30.302Z,1.23
2018-09-29T17:13:58.637Z,1.00
2018-09-29T17:16:26.913Z,0.87
2018-09-29T17:18:55.307Z,1.27
2018-09-29T17:21:23.614Z,1.13
2018-09-29T17:23:51.916Z,1.00
2018-09-29T17:26:21.148Z,0.90
2018-09-29T17:28:49.523Z,1.17
2018-09-29T17:31:17.860Z,1.70
2018-09-29T17:33:46.159Z,1.30
2018-09-29T17:36:14.443Z,1.43
2018-09-29T17:38:42.740Z,2.22
2018-09-29T17:41:11.095Z,1.93
2018-09-29T17:43:39.411Z,1.93
2018-09-29T17:46:07.851Z,2.43
2018-09-29T17:48:36.170Z,2.60
2018-09-29T17:51:04.759Z,2.90
2018-09-29T17:53:33.032Z,2.50
2018-09-29T17:56:01.434Z,3.00
2018-09-29T17:58:29.702Z,2.97
2018-09-29T18:00:58.022Z,3.13
2018-09-29T18:03:26.326Z,3.50
2018-09-29T18:05:54.691Z,3.20
2018-09-29T18:08:22.962Z,4.00
2018-09-29T18:10:51.378Z,3.00
2018-09-29T18:13:19.788Z,3.80
2018-09-29T18:15:48.006Z,3.73
2018-09-29T18:18:16.275Z,4.50
2018-09-29T18:20:44.632Z,4.30
2018-09-29T18:23:12.918Z,4.17
2018-09-29T18:25:41.306Z,4.67
2018-09-29T18:28:09.608Z,4.40
2018-09-29T18:30:38.174Z,5.27
2018-09-29T18:33:06.550Z,9.20
2018-09-29T18:35:34.953Z,6.10
2018-09-29T18:38:03.235Z,6.20
2018-09-29T18:40:31.555Z,5.50
2018-09-29T18:42:59.927Z,4.90
2018-09-29T18:45:28.351Z,5.40
2018-09-29T18:47:56.802Z,4.90
2018-09-29T18:50:25.235Z,5.73
2018-09-29T18:52:53.555Z,5.83
2018-09-29T18:55:21.858Z,5.53
2018-09-29T18:57:50.327Z,5.87
2018-09-29T19:00:18.731Z,6.77
2018-09-29T19:02:47.023Z,5.93
2018-09-29T19:05:15.320Z,6.97
2018-09-29T19:07:43.622Z,5.10
2018-09-29T19:10:11.926Z,5.40
2018-09-29T19:12:40.916Z,6.20
2018-09-29T19:15:09.325Z,5.40
2018-09-29T19:17:37.599Z,5.30
2018-09-29T19:20:05.934Z,5.47
2018-09-29T19:22:34.342Z,5.53
2018-09-29T19:25:02.713Z,5.70
2018-09-29T19:27:31.106Z,6.10
2018-09-29T19:29:59.422Z,5.00
2018-09-29T19:32:27.959Z,5.43
2018-09-29T19:34:56.267Z,5.47
2018-09-29T19:37:24.543Z,5.90
2018-09-29T19:39:52.830Z,6.80
2018-09-29T19:42:21.166Z,5.83
2018-09-29T19:44:49.491Z,5.20
2018-09-29T19:47:17.785Z,4.80
2018-09-29T19:49:46.099Z,5.93
2018-09-29T19:52:14.547Z,6.37
2018-09-29T19:54:42.850Z,4.93
2018-09-29T19:57:11.150Z,5.03
2018-09-29T19:59:39.471Z,5.07
2018-09-29T20:02:07.779Z,4.17
2018-09-29T20:04:36.247Z,5.30
2018-09-29T20:07:04.579Z,7.90
2018-09-29T20:09:32.886Z,6.10
2018-09-29T20:12:01.283Z,6.10
2018-09-29T20:14:29.630Z,5.80
2018-09-29T20:16:57.943Z,7.30
2018-09-29T20:19:26.303Z,6.60
2018-09-29T20:21:54.648Z,5.87
2018-09-29T20:24:22.988Z,4.95
2018-09-29T20:26:51.346Z,6.17
2018-09-29T20:29:19.630Z,6.80
2018-09-29T20:31:47.971Z,5.30
2018-09-29T20:34:16.983Z,5.90
2018-09-29T20:36:45.274Z,5.00
2018-09-29T20:39:14.071Z,5.83
2018-09-29T20:41:43.267Z,6.30
2018-09-29T20:44:11.770Z,21.13
2018-09-29T20:46:40.105Z,92.23
2018-09-29T20:49:09.126Z,57.80
2018-09-29T20:51:37.827Z,31.90
2018-09-29T20:54:06.309Z,24.52
2018-09-29T20:56:34.662Z,22.97
2018-09-29T20:59:03.154Z,19.00
2018-09-29T21:01:31.554Z,18.42
2018-09-29T21:03:59.870Z,16.00
2018-09-29T21:06:28.274Z,15.10
2018-09-29T21:08:56.638Z,14.75
2018-09-29T21:11:25.059Z,15.60
2018-09-29T21:13:53.499Z,13.77
2018-09-29T21:16:21.918Z,14.37
2018-09-29T21:18:50.251Z,12.73
2018-09-29T21:21:18.541Z,13.20
2018-09-29T21:23:46.906Z,12.70
2018-09-29T21:26:15.306Z,9.63
2018-09-29T21:28:43.586Z,10.00
2018-09-29T21:31:11.939Z,10.00
2018-09-29T21:33:40.262Z,10.43
2018-09-29T21:36:08.591Z,9.07
2018-09-29T21:38:37.083Z,9.43
2018-09-29T21:41:05.423Z,9.63
2018-09-29T21:43:33.692Z,8.97
2018-09-29T21:46:01.983Z,9.60
2018-09-29T21:48:30.274Z,9.53
2018-09-29T21:50:58.566Z,7.75
2018-09-29T21:53:26.834Z,8.20
2018-09-29T21:55:55.177Z,8.07
2018-09-29T21:58:23.470Z,6.93
2018-09-29T22:00:51.739Z,8.20
2018-09-29T22:03:20.085Z,6.90
2018-09-29T22:05:48.354Z,6.60
2018-09-29T22:08:16.658Z,6.40
2018-09-29T22:10:44.959Z,5.40
2018-09-29T22:13:13.264Z,10.60
2018-09-29T22:15:41.703Z,7.53
2018-09-29T22:18:10.027Z,5.67
2018-09-29T22:20:38.466Z,6.03
2018-09-29T22:23:06.763Z,9.37
2018-09-29T22:25:35.159Z,5.77
2018-09-29T22:28:03.503Z,6.42
2018-09-29T22:30:31.765Z,4.87
2018-09-29T22:33:00.120Z,7.63
2018-09-29T22:35:28.398Z,5.17
2018-09-29T22:37:56.733Z,5.87
2018-09-29T22:40:25.012Z,5.40
2018-09-29T22:42:53.334Z,6.13
2018-09-29T22:45:21.630Z,5.30
2018-09-29T22:47:49.958Z,5.97
2018-09-29T22:50:18.230Z,3.50
2018-09-29T22:52:46.507Z,3.47
2018-09-29T22:55:14.892Z,4.33
2018-09-29T22:57:43.222Z,4.50
2018-09-29T23:00:11.522Z,3.20
2018-09-29T23:02:39.860Z,4.45
2018-09-29T23:05:08.191Z,4.90
2018-09-29T23:07:36.696Z,4.63
2018-09-29T23:10:05.107Z,5.30
2018-09-29T23:12:33.420Z,4.45
2018-09-29T23:15:01.798Z,5.50
2018-09-29T23:17:30.076Z,4.53
2018-09-29T23:19:58.354Z,3.83
2018-09-29T23:22:26.727Z,4.13
2018-09-29T23:24:54.999Z,4.27
2018-09-29T23:27:23.391Z,3.27
2018-09-29T23:29:51.678Z,4.77
2018-09-29T23:32:20.107Z,3.17
2018-09-29T23:34:48.392Z,5.17
2018-09-29T23:37:16.706Z,3.92
2018-09-29T23:39:45.035Z,3.63
2018-09-29T23:42:13.373Z,4.62
2018-09-29T23:44:41.682Z,4.30
2018-09-29T23:47:09.975Z,4.13
2018-09-29T23:49:38.251Z,3.10
2018-09-29T23:52:06.562Z,3.25
2018-09-29T23:54:34.977Z,3.23
2018-09-29T23:57:03.204Z,4.17
2018-09-29T23:59:31.599Z,3.70
